sensor_id;sensor_type;location;lat;lon;timestamp;P1;durP1;ratioP1;P2;durP2;ratioP2
22634;SDS011;11484;50.858;4.384;2022-07-24T00:01:34;26.27;;;21.65;;
22634;SDS011;11484;50.858;4.384;2022-07-24T00:04:11;28.48;;;22.10;;
22634;SDS011;11484;50.858;4.384;2022-07-24T00:06:38;26.10;;;21.80;;
22634;SDS011;11484;50.858;4.384;2022-07-24T00:09:05;29.08;;;22.23;;
22634;SDS011;11484;50.858;4.384;2022-07-24T00:11:32;42.78;;;35.35;;
22634;SDS011;11484;50.858;4.384;2022-07-24T00:13:59;30.92;;;24.58;;
22634;SDS011;11484;50.858;4.384;2022-07-24T00:16:24;33.08;;;24.27;;
22634;SDS011;11484;50.858;4.384;2022-07-24T00:18:50;31.58;;;23.80;;
22634;SDS011;11484;50.858;4.384;2022-07-24T00:21:19;33.58;;;25.98;;
22634;SDS011;11484;50.858;4.384;2022-07-24T00:23:45;33.67;;;26.52;;
22634;SDS011;11484;50.858;4.384;2022-07-24T00:26:12;36.67;;;27.58;;
22634;SDS011;11484;50.858;4.384;2022-07-24T00:28:45;37.47;;;28.02;;
22634;SDS011;11484;50.858;4.384;2022-07-24T00:31:14;37.28;;;28.73;;
22634;SDS011;11484;50.858;4.384;2022-07-24T00:33:43;34.25;;;28.65;;
22634;SDS011;11484;50.858;4.384;2022-07-24T00:36:11;41.70;;;31.85;;
22634;SDS011;11484;50.858;4.384;2022-07-24T00:38:37;37.38;;;30.17;;
22634;SDS011;11484;50.858;4.384;2022-07-24T00:41:03;38.65;;;28.98;;
22634;SDS011;11484;50.858;4.384;2022-07-24T00:43:28;36.60;;;28.90;;
22634;SDS011;11484;50.858;4.384;2022-07-24T00:45:54;39.60;;;31.02;;
22634;SDS011;11484;50.858;4.384;2022-07-24T00:48:20;41.55;;;30.85;;
22634;SDS011;11484;50.858;4.384;2022-07-24T00:50:47;44.90;;;32.88;;
22634;SDS011;11484;50.858;4.384;2022-07-24T00:53:13;44.15;;;31.48;;
22634;SDS011;11484;50.858;4.384;2022-07-24T00:55:41;40.95;;;32.40;;
22634;SDS011;11484;50.858;4.384;2022-07-24T00:58:07;43.75;;;31.70;;
22634;SDS011;11484;50.858;4.384;2022-07-24T01:00:33;42.08;;;31.42;;
22634;SDS011;11484;50.858;4.384;2022-07-24T01:03:00;39.42;;;30.92;;
22634;SDS011;11484;50.858;4.384;2022-07-24T01:05:29;39.10;;;31.13;;
22634;SDS011;11484;50.858;4.384;2022-07-24T01:07:54;36.80;;;30.58;;
22634;SDS011;11484;50.858;4.384;2022-07-24T01:10:21;36.38;;;29.58;;
22634;SDS011;11484;50.858;4.384;2022-07-24T01:12:47;34.30;;;28.95;;
22634;SDS011;11484;50.858;4.384;2022-07-24T01:15:13;34.60;;;27.52;;
22634;SDS011;11484;50.858;4.384;2022-07-24T01:17:40;37.05;;;28.30;;
22634;SDS011;11484;50.858;4.384;2022-07-24T01:20:07;34.78;;;28.23;;
22634;SDS011;11484;50.858;4.384;2022-07-24T01:22:34;31.13;;;25.83;;
22634;SDS011;11484;50.858;4.384;2022-07-24T01:25:00;32.65;;;26.58;;
22634;SDS011;11484;50.858;4.384;2022-07-24T01:27:26;32.60;;;27.48;;
22634;SDS011;11484;50.858;4.384;2022-07-24T01:29:52;32.97;;;27.08;;
22634;SDS011;11484;50.858;4.384;2022-07-24T01:32:17;33.97;;;26.58;;
22634;SDS011;11484;50.858;4.384;2022-07-24T01:34:43;31.85;;;25.75;;
22634;SDS011;11484;50.858;4.384;2022-07-24T01:37:11;31.17;;;25.30;;
22634;SDS011;11484;50.858;4.384;2022-07-24T01:39:39;30.67;;;24.65;;
22634;SDS011;11484;50.858;4.384;2022-07-24T01:42:06;31.40;;;25.38;;
22634;SDS011;11484;50.858;4.384;2022-07-24T01:44:33;33.63;;;24.30;;
22634;SDS011;11484;50.858;4.384;2022-07-24T01:46:59;26.85;;;21.48;;
22634;SDS011;11484;50.858;4.384;2022-07-24T01:49:25;23.55;;;18.88;;
22634;SDS011;11484;50.858;4.384;2022-07-24T01:51:50;21.65;;;16.48;;
22634;SDS011;11484;50.858;4.384;2022-07-24T01:54:16;21.05;;;17.02;;
22634;SDS011;11484;50.858;4.384;2022-07-24T01:56:43;20.98;;;16.48;;
22634;SDS011;11484;50.858;4.384;2022-07-24T01:59:09;20.20;;;16.88;;
22634;SDS011;11484;50.858;4.384;2022-07-24T02:01:36;21.23;;;17.35;;
22634;SDS011;11484;50.858;4.384;2022-07-24T02:04:05;25.45;;;18.58;;
22634;SDS011;11484;50.858;4.384;2022-07-24T02:06:32;22.88;;;18.30;;
22634;SDS011;11484;50.858;4.384;2022-07-24T02:08:58;25.38;;;18.27;;
22634;SDS011;11484;50.858;4.384;2022-07-24T02:11:25;24.83;;;18.88;;
22634;SDS011;11484;50.858;4.384;2022-07-24T02:13:52;21.88;;;18.08;;
22634;SDS011;11484;50.858;4.384;2022-07-24T02:16:20;23.42;;;18.77;;
22634;SDS011;11484;50.858;4.384;2022-07-24T02:18:46;26.40;;;20.25;;
22634;SDS011;11484;50.858;4.384;2022-07-24T02:21:13;25.90;;;18.92;;
22634;SDS011;11484;50.858;4.384;2022-07-24T02:23:39;26.35;;;20.00;;
22634;SDS011;11484;50.858;4.384;2022-07-24T02:26:04;23.23;;;19.20;;
22634;SDS011;11484;50.858;4.384;2022-07-24T02:28:30;25.42;;;19.58;;
22634;SDS011;11484;50.858;4.384;2022-07-24T02:30:57;26.77;;;20.08;;
22634;SDS011;11484;50.858;4.384;2022-07-24T02:33:25;25.67;;;20.50;;
22634;SDS011;11484;50.858;4.384;2022-07-24T02:35:51;26.58;;;19.20;;
22634;SDS011;11484;50.858;4.384;2022-07-24T02:38:18;24.05;;;19.15;;
22634;SDS011;11484;50.858;4.384;2022-07-24T02:40:49;24.40;;;19.67;;
22634;SDS011;11484;50.858;4.384;2022-07-24T02:43:16;22.48;;;18.15;;
22634;SDS011;11484;50.858;4.384;2022-07-24T02:45:42;23.83;;;18.48;;
22634;SDS011;11484;50.858;4.384;2022-07-24T02:48:09;20.50;;;17.13;;
22634;SDS011;11484;50.858;4.384;2022-07-24T02:50:37;22.50;;;16.98;;
22634;SDS011;11484;50.858;4.384;2022-07-24T02:53:04;20.90;;;16.70;;
22634;SDS011;11484;50.858;4.384;2022-07-24T02:55:32;22.00;;;15.68;;
22634;SDS011;11484;50.858;4.384;2022-07-24T02:57:58;23.40;;;15.55;;
22634;SDS011;11484;50.858;4.384;2022-07-24T03:00:24;21.92;;;16.00;;
22634;SDS011;11484;50.858;4.384;2022-07-24T03:02:50;19.10;;;15.52;;
22634;SDS011;11484;50.858;4.384;2022-07-24T03:05:17;20.55;;;14.88;;
22634;SDS011;11484;50.858;4.384;2022-07-24T03:07:43;20.08;;;14.18;;
22634;SDS011;11484;50.858;4.384;2022-07-24T03:10:10;21.33;;;15.20;;
22634;SDS011;11484;50.858;4.384;2022-07-24T03:12:37;25.58;;;16.52;;
22634;SDS011;11484;50.858;4.384;2022-07-24T03:15:06;24.73;;;16.27;;
22634;SDS011;11484;50.858;4.384;2022-07-24T03:17:32;22.23;;;16.98;;
22634;SDS011;11484;50.858;4.384;2022-07-24T03:19:59;21.90;;;17.63;;
22634;SDS011;11484;50.858;4.384;2022-07-24T03:22:25;22.60;;;16.95;;
22634;SDS011;11484;50.858;4.384;2022-07-24T03:24:52;22.27;;;16.98;;
22634;SDS011;11484;50.858;4.384;2022-07-24T03:27:20;21.60;;;16.55;;
22634;SDS011;11484;50.858;4.384;2022-07-24T03:29:47;21.75;;;15.75;;
22634;SDS011;11484;50.858;4.384;2022-07-24T03:32:19;18.20;;;14.98;;
22634;SDS011;11484;50.858;4.384;2022-07-24T03:34:47;20.85;;;15.27;;
22634;SDS011;11484;50.858;4.384;2022-07-24T03:37:13;19.30;;;14.52;;
22634;SDS011;11484;50.858;4.384;2022-07-24T03:39:39;19.98;;;14.50;;
22634;SDS011;11484;50.858;4.384;2022-07-24T03:42:08;23.90;;;15.35;;
22634;SDS011;11484;50.858;4.384;2022-07-24T03:44:40;18.55;;;14.38;;
22634;SDS011;11484;50.858;4.384;2022-07-24T03:47:09;20.88;;;15.52;;
22634;SDS011;11484;50.858;4.384;2022-07-24T03:49:34;19.42;;;13.82;;
22634;SDS011;11484;50.858;4.384;2022-07-24T03:52:01;21.00;;;14.93;;
22634;SDS011;11484;50.858;4.384;2022-07-24T03:54:28;20.10;;;15.50;;
22634;SDS011;11484;50.858;4.384;2022-07-24T03:56:54;29.52;;;17.95;;
22634;SDS011;11484;50.858;4.384;2022-07-24T03:59:25;29.50;;;22.75;;
22634;SDS011;11484;50.858;4.384;2022-07-24T04:01:52;30.60;;;22.75;;
22634;SDS011;11484;50.858;4.384;2022-07-24T04:04:18;39.70;;;28.80;;
22634;SDS011;11484;50.858;4.384;2022-07-24T04:06:44;42.53;;;32.85;;
22634;SDS011;11484;50.858;4.384;2022-07-24T04:09:11;47.95;;;38.53;;
22634;SDS011;11484;50.858;4.384;2022-07-24T04:11:38;52.75;;;42.45;;
22634;SDS011;11484;50.858;4.384;2022-07-24T04:14:06;48.05;;;40.97;;
22634;SDS011;11484;50.858;4.384;2022-07-24T04:16:32;46.22;;;39.15;;
22634;SDS011;11484;50.858;4.384;2022-07-24T04:18:59;44.25;;;37.60;;
22634;SDS011;11484;50.858;4.384;2022-07-24T04:21:31;40.55;;;35.20;;
22634;SDS011;11484;50.858;4.384;2022-07-24T04:23:59;41.17;;;33.20;;
22634;SDS011;11484;50.858;4.384;2022-07-24T04:26:25;39.45;;;32.97;;
22634;SDS011;11484;50.858;4.384;2022-07-24T04:28:53;35.88;;;30.80;;
22634;SDS011;11484;50.858;4.384;2022-07-24T04:31:18;34.40;;;29.05;;
22634;SDS011;11484;50.858;4.384;2022-07-24T04:33:44;34.78;;;27.15;;
22634;SDS011;11484;50.858;4.384;2022-07-24T04:36:10;35.53;;;26.05;;
22634;SDS011;11484;50.858;4.384;2022-07-24T04:38:35;27.90;;;23.30;;
22634;SDS011;11484;50.858;4.384;2022-07-24T04:41:04;22.58;;;18.60;;
22634;SDS011;11484;50.858;4.384;2022-07-24T04:43:30;20.65;;;15.77;;
22634;SDS011;11484;50.858;4.384;2022-07-24T04:45:56;19.63;;;15.50;;
22634;SDS011;11484;50.858;4.384;2022-07-24T04:48:21;19.02;;;15.70;;
22634;SDS011;11484;50.858;4.384;2022-07-24T04:50:47;21.85;;;14.68;;
22634;SDS011;11484;50.858;4.384;2022-07-24T04:53:15;17.33;;;13.43;;
22634;SDS011;11484;50.858;4.384;2022-07-24T04:55:41;15.20;;;12.35;;
22634;SDS011;11484;50.858;4.384;2022-07-24T04:58:07;18.13;;;11.27;;
22634;SDS011;11484;50.858;4.384;2022-07-24T05:00:33;19.17;;;10.45;;
22634;SDS011;11484;50.858;4.384;2022-07-24T05:03:00;14.05;;;9.18;;
22634;SDS011;11484;50.858;4.384;2022-07-24T05:05:27;14.73;;;10.45;;
22634;SDS011;11484;50.858;4.384;2022-07-24T05:07:54;12.38;;;8.95;;
22634;SDS011;11484;50.858;4.384;2022-07-24T05:10:20;11.82;;;9.02;;
22634;SDS011;11484;50.858;4.384;2022-07-24T05:12:46;13.63;;;9.25;;
22634;SDS011;11484;50.858;4.384;2022-07-24T05:15:11;11.57;;;8.10;;
22634;SDS011;11484;50.858;4.384;2022-07-24T05:17:37;11.60;;;7.88;;
22634;SDS011;11484;50.858;4.384;2022-07-24T05:20:03;13.50;;;8.02;;
22634;SDS011;11484;50.858;4.384;2022-07-24T05:22:30;11.93;;;7.97;;
22634;SDS011;11484;50.858;4.384;2022-07-24T05:24:56;10.82;;;7.80;;
22634;SDS011;11484;50.858;4.384;2022-07-24T05:27:22;13.25;;;7.78;;
22634;SDS011;11484;50.858;4.384;2022-07-24T05:29:48;10.85;;;7.70;;
22634;SDS011;11484;50.858;4.384;2022-07-24T05:32:13;11.32;;;7.18;;
22634;SDS011;11484;50.858;4.384;2022-07-24T05:34:40;9.57;;;7.15;;
22634;SDS011;11484;50.858;4.384;2022-07-24T05:37:07;10.82;;;6.90;;
22634;SDS011;11484;50.858;4.384;2022-07-24T05:39:33;10.25;;;7.18;;
22634;SDS011;11484;50.858;4.384;2022-07-24T05:41:59;9.70;;;6.75;;
22634;SDS011;11484;50.858;4.384;2022-07-24T05:44:25;8.93;;;6.93;;
22634;SDS011;11484;50.858;4.384;2022-07-24T05:46:51;10.65;;;6.47;;
22634;SDS011;11484;50.858;4.384;2022-07-24T05:49:17;8.45;;;6.25;;
22634;SDS011;11484;50.858;4.384;2022-07-24T05:51:42;9.90;;;6.38;;
22634;SDS011;11484;50.858;4.384;2022-07-24T05:54:08;9.75;;;5.22;;
22634;SDS011;11484;50.858;4.384;2022-07-24T05:56:34;6.72;;;5.05;;
22634;SDS011;11484;50.858;4.384;2022-07-24T05:58:59;8.70;;;5.22;;
22634;SDS011;11484;50.858;4.384;2022-07-24T06:01:25;7.60;;;4.68;;
22634;SDS011;11484;50.858;4.384;2022-07-24T06:03:51;7.88;;;5.57;;
22634;SDS011;11484;50.858;4.384;2022-07-24T06:06:17;9.07;;;5.18;;
22634;SDS011;11484;50.858;4.384;2022-07-24T06:08:42;6.55;;;5.10;;
22634;SDS011;11484;50.858;4.384;2022-07-24T06:11:08;8.20;;;5.47;;
22634;SDS011;11484;50.858;4.384;2022-07-24T06:13:34;6.10;;;4.43;;
22634;SDS011;11484;50.858;4.384;2022-07-24T06:15:59;6.35;;;4.10;;
22634;SDS011;11484;50.858;4.384;2022-07-24T06:18:25;10.05;;;4.57;;
22634;SDS011;11484;50.858;4.384;2022-07-24T06:20:51;7.85;;;4.47;;
22634;SDS011;11484;50.858;4.384;2022-07-24T06:23:16;5.95;;;4.07;;
22634;SDS011;11484;50.858;4.384;2022-07-24T06:25:42;4.85;;;3.90;;
22634;SDS011;11484;50.858;4.384;2022-07-24T06:28:08;7.43;;;4.35;;
22634;SDS011;11484;50.858;4.384;2022-07-24T06:30:33;7.40;;;4.53;;
22634;SDS011;11484;50.858;4.384;2022-07-24T06:32:59;5.72;;;3.53;;
22634;SDS011;11484;50.858;4.384;2022-07-24T06:35:26;7.20;;;3.97;;
22634;SDS011;11484;50.858;4.384;2022-07-24T06:37:53;5.00;;;4.10;;
22634;SDS011;11484;50.858;4.384;2022-07-24T06:40:20;7.32;;;4.55;;
22634;SDS011;11484;50.858;4.384;2022-07-24T06:42:47;10.82;;;4.30;;
22634;SDS011;11484;50.858;4.384;2022-07-24T06:45:13;4.43;;;3.53;;
22634;SDS011;11484;50.858;4.384;2022-07-24T06:47:40;6.65;;;4.28;;
22634;SDS011;11484;50.858;4.384;2022-07-24T06:50:06;6.15;;;4.88;;
22634;SDS011;11484;50.858;4.384;2022-07-24T06:52:33;7.43;;;4.38;;
22634;SDS011;11484;50.858;4.384;2022-07-24T06:54:58;7.53;;;4.90;;
22634;SDS011;11484;50.858;4.384;2022-07-24T06:57:24;10.63;;;5.80;;
22634;SDS011;11484;50.858;4.384;2022-07-24T06:59:53;8.30;;;5.40;;
22634;SDS011;11484;50.858;4.384;2022-07-24T07:02:19;6.85;;;5.35;;
22634;SDS011;11484;50.858;4.384;2022-07-24T07:04:45;9.25;;;5.10;;
22634;SDS011;11484;50.858;4.384;2022-07-24T07:07:12;6.75;;;4.85;;
22634;SDS011;11484;50.858;4.384;2022-07-24T07:09:39;8.43;;;5.28;;
22634;SDS011;11484;50.858;4.384;2022-07-24T07:12:05;6.00;;;4.45;;
22634;SDS011;11484;50.858;4.384;2022-07-24T07:14:31;6.88;;;3.72;;
22634;SDS011;11484;50.858;4.384;2022-07-24T07:16:56;4.90;;;3.80;;
22634;SDS011;11484;50.858;4.384;2022-07-24T07:19:22;7.82;;;3.78;;
22634;SDS011;11484;50.858;4.384;2022-07-24T07:21:48;4.75;;;3.33;;
22634;SDS011;11484;50.858;4.384;2022-07-24T07:24:14;5.22;;;3.50;;
22634;SDS011;11484;50.858;4.384;2022-07-24T07:26:39;5.05;;;3.58;;
22634;SDS011;11484;50.858;4.384;2022-07-24T07:29:05;5.28;;;3.63;;
22634;SDS011;11484;50.858;4.384;2022-07-24T07:31:31;4.38;;;3.35;;
22634;SDS011;11484;50.858;4.384;2022-07-24T07:33:57;4.07;;;3.22;;
22634;SDS011;11484;50.858;4.384;2022-07-24T07:36:23;4.50;;;3.58;;
22634;SDS011;11484;50.858;4.384;2022-07-24T07:38:49;6.63;;;3.85;;
22634;SDS011;11484;50.858;4.384;2022-07-24T07:41:14;5.35;;;3.65;;
22634;SDS011;11484;50.858;4.384;2022-07-24T07:43:40;4.38;;;2.90;;
22634;SDS011;11484;50.858;4.384;2022-07-24T07:46:06;4.00;;;2.63;;
22634;SDS011;11484;50.858;4.384;2022-07-24T07:48:32;4.65;;;2.80;;
22634;SDS011;11484;50.858;4.384;2022-07-24T07:50:58;4.75;;;3.70;;
22634;SDS011;11484;50.858;4.384;2022-07-24T07:53:24;4.07;;;2.88;;
22634;SDS011;11484;50.858;4.384;2022-07-24T07:55:50;4.95;;;3.10;;
22634;SDS011;11484;50.858;4.384;2022-07-24T07:58:18;5.10;;;3.40;;
22634;SDS011;11484;50.858;4.384;2022-07-24T08:00:45;4.05;;;3.03;;
22634;SDS011;11484;50.858;4.384;2022-07-24T08:03:10;4.22;;;2.67;;
22634;SDS011;11484;50.858;4.384;2022-07-24T08:05:36;5.82;;;3.30;;
22634;SDS011;11484;50.858;4.384;2022-07-24T08:08:02;5.53;;;3.30;;
22634;SDS011;11484;50.858;4.384;2022-07-24T08:10:28;6.13;;;3.15;;
22634;SDS011;11484;50.858;4.384;2022-07-24T08:12:54;4.30;;;2.88;;
22634;SDS011;11484;50.858;4.384;2022-07-24T08:15:20;4.72;;;3.42;;
22634;SDS011;11484;50.858;4.384;2022-07-24T08:17:50;7.20;;;3.70;;
22634;SDS011;11484;50.858;4.384;2022-07-24T08:20:20;5.40;;;3.10;;
22634;SDS011;11484;50.858;4.384;2022-07-24T08:22:46;5.68;;;3.40;;
22634;SDS011;11484;50.858;4.384;2022-07-24T08:25:12;5.00;;;2.58;;
22634;SDS011;11484;50.858;4.384;2022-07-24T08:27:37;4.97;;;3.00;;
22634;SDS011;11484;50.858;4.384;2022-07-24T08:30:04;5.05;;;3.10;;
22634;SDS011;11484;50.858;4.384;2022-07-24T08:32:30;4.03;;;2.70;;
22634;SDS011;11484;50.858;4.384;2022-07-24T08:34:56;5.68;;;2.53;;
22634;SDS011;11484;50.858;4.384;2022-07-24T08:37:22;4.88;;;2.63;;
22634;SDS011;11484;50.858;4.384;2022-07-24T08:39:47;3.80;;;2.67;;
22634;SDS011;11484;50.858;4.384;2022-07-24T08:42:13;5.40;;;2.63;;
22634;SDS011;11484;50.858;4.384;2022-07-24T08:44:39;5.90;;;2.58;;
22634;SDS011;11484;50.858;4.384;2022-07-24T08:47:06;3.67;;;2.25;;
22634;SDS011;11484;50.858;4.384;2022-07-24T08:49:34;4.55;;;2.60;;
22634;SDS011;11484;50.858;4.384;2022-07-24T08:52:02;3.75;;;2.30;;
22634;SDS011;11484;50.858;4.384;2022-07-24T08:54:34;4.22;;;2.45;;
22634;SDS011;11484;50.858;4.384;2022-07-24T08:57:01;5.07;;;2.17;;
22634;SDS011;11484;50.858;4.384;2022-07-24T08:59:28;3.63;;;2.30;;
22634;SDS011;11484;50.858;4.384;2022-07-24T09:01:55;3.13;;;2.58;;
22634;SDS011;11484;50.858;4.384;2022-07-24T09:04:41;3.80;;;2.55;;
22634;SDS011;11484;50.858;4.384;2022-07-24T09:07:15;2.42;;;2.00;;
22634;SDS011;11484;50.858;4.384;2022-07-24T09:09:59;2.75;;;1.90;;
22634;SDS011;11484;50.858;4.384;2022-07-24T09:12:29;2.72;;;1.60;;
22634;SDS011;11484;50.858;4.384;2022-07-24T09:14:59;2.95;;;1.80;;
22634;SDS011;11484;50.858;4.384;2022-07-24T09:17:26;3.55;;;1.83;;
22634;SDS011;11484;50.858;4.384;2022-07-24T09:19:53;5.03;;;1.80;;
22634;SDS011;11484;50.858;4.384;2022-07-24T09:27:30;2.97;;;1.90;;
22634;SDS011;11484;50.858;4.384;2022-07-24T09:29:56;4.68;;;1.90;;
22634;SDS011;11484;50.858;4.384;2022-07-24T09:32:23;4.07;;;1.80;;
22634;SDS011;11484;50.858;4.384;2022-07-24T09:34:51;3.47;;;1.45;;
22634;SDS011;11484;50.858;4.384;2022-07-24T09:37:17;2.33;;;1.50;;
22634;SDS011;11484;50.858;4.384;2022-07-24T09:39:44;3.38;;;1.95;;
22634;SDS011;11484;50.858;4.384;2022-07-24T09:42:11;3.85;;;1.80;;
22634;SDS011;11484;50.858;4.384;2022-07-24T09:44:37;4.05;;;2.00;;
22634;SDS011;11484;50.858;4.384;2022-07-24T09:47:07;2.97;;;1.60;;
22634;SDS011;11484;50.858;4.384;2022-07-24T09:49:35;3.13;;;1.60;;
22634;SDS011;11484;50.858;4.384;2022-07-24T09:54:31;3.92;;;1.25;;
22634;SDS011;11484;50.858;4.384;2022-07-24T09:59:42;1.70;;;1.20;;
22634;SDS011;11484;50.858;4.384;2022-07-24T10:04:38;4.53;;;1.40;;
22634;SDS011;11484;50.858;4.384;2022-07-24T10:07:09;2.78;;;1.30;;
22634;SDS011;11484;50.858;4.384;2022-07-24T10:09:35;2.47;;;1.50;;
22634;SDS011;11484;50.858;4.384;2022-07-24T10:12:11;2.30;;;1.33;;
22634;SDS011;11484;50.858;4.384;2022-07-24T10:14:38;5.50;;;1.63;;
22634;SDS011;11484;50.858;4.384;2022-07-24T10:17:06;2.70;;;1.40;;
22634;SDS011;11484;50.858;4.384;2022-07-24T10:19:38;3.22;;;1.95;;
22634;SDS011;11484;50.858;4.384;2022-07-24T10:22:14;3.47;;;1.90;;
22634;SDS011;11484;50.858;4.384;2022-07-24T10:30:15;2.97;;;1.67;;
22634;SDS011;11484;50.858;4.384;2022-07-24T10:32:41;2.05;;;1.30;;
22634;SDS011;11484;50.858;4.384;2022-07-24T10:40:50;2.80;;;1.40;;
22634;SDS011;11484;50.858;4.384;2022-07-24T10:43:20;4.60;;;2.15;;
22634;SDS011;11484;50.858;4.384;2022-07-24T10:53:22;3.00;;;1.25;;
22634;SDS011;11484;50.858;4.384;2022-07-24T10:55:48;2.85;;;1.95;;
22634;SDS011;11484;50.858;4.384;2022-07-24T10:58:14;2.70;;;1.88;;
22634;SDS011;11484;50.858;4.384;2022-07-24T11:00:44;2.78;;;1.48;;
22634;SDS011;11484;50.858;4.384;2022-07-24T11:03:21;5.55;;;3.65;;
22634;SDS011;11484;50.858;4.384;2022-07-24T11:11:09;3.10;;;1.63;;
22634;SDS011;11484;50.858;4.384;2022-07-24T11:16:16;3.97;;;1.80;;
22634;SDS011;11484;50.858;4.384;2022-07-24T11:18:42;4.00;;;1.88;;
22634;SDS011;11484;50.858;4.384;2022-07-24T11:29:43;2.78;;;1.88;;
22634;SDS011;11484;50.858;4.384;2022-07-24T11:32:12;3.22;;;2.00;;
22634;SDS011;11484;50.858;4.384;2022-07-24T11:34:42;3.70;;;2.30;;
22634;SDS011;11484;50.858;4.384;2022-07-24T11:37:15;4.72;;;2.45;;
22634;SDS011;11484;50.858;4.384;2022-07-24T11:39:43;3.72;;;2.58;;
22634;SDS011;11484;50.858;4.384;2022-07-24T11:42:11;4.68;;;2.28;;
22634;SDS011;11484;50.858;4.384;2022-07-24T11:44:39;4.35;;;1.90;;
22634;SDS011;11484;50.858;4.384;2022-07-24T11:47:15;3.58;;;2.22;;
22634;SDS011;11484;50.858;4.384;2022-07-24T11:49:46;3.67;;;2.40;;
22634;SDS011;11484;50.858;4.384;2022-07-24T11:52:14;6.63;;;3.00;;
22634;SDS011;11484;50.858;4.384;2022-07-24T11:54:47;4.25;;;2.38;;
22634;SDS011;11484;50.858;4.384;2022-07-24T11:57:16;5.95;;;2.55;;
22634;SDS011;11484;50.858;4.384;2022-07-24T11:59:42;3.17;;;2.30;;
22634;SDS011;11484;50.858;4.384;2022-07-24T12:02:09;3.78;;;2.42;;
22634;SDS011;11484;50.858;4.384;2022-07-24T12:04:36;3.92;;;2.33;;
22634;SDS011;11484;50.858;4.384;2022-07-24T12:07:11;3.42;;;2.75;;
22634;SDS011;11484;50.858;4.384;2022-07-24T12:09:50;2.88;;;2.55;;
22634;SDS011;11484;50.858;4.384;2022-07-24T12:12:30;4.18;;;2.78;;
22634;SDS011;11484;50.858;4.384;2022-07-24T12:15:00;3.78;;;2.40;;
22634;SDS011;11484;50.858;4.384;2022-07-24T12:17:27;4.35;;;2.70;;
22634;SDS011;11484;50.858;4.384;2022-07-24T12:19:55;3.97;;;2.92;;
22634;SDS011;11484;50.858;4.384;2022-07-24T12:22:23;5.32;;;2.78;;
22634;SDS011;11484;50.858;4.384;2022-07-24T12:24:50;6.53;;;3.35;;
22634;SDS011;11484;50.858;4.384;2022-07-24T12:27:33;6.20;;;3.05;;
22634;SDS011;11484;50.858;4.384;2022-07-24T12:30:01;4.85;;;2.45;;
22634;SDS011;11484;50.858;4.384;2022-07-24T12:32:28;4.72;;;2.85;;
22634;SDS011;11484;50.858;4.384;2022-07-24T12:34:54;4.97;;;3.05;;
22634;SDS011;11484;50.858;4.384;2022-07-24T12:37:21;4.05;;;2.95;;
22634;SDS011;11484;50.858;4.384;2022-07-24T12:42:14;5.85;;;3.60;;
22634;SDS011;11484;50.858;4.384;2022-07-24T12:44:44;5.97;;;2.83;;
22634;SDS011;11484;50.858;4.384;2022-07-24T12:47:11;5.32;;;2.60;;
22634;SDS011;11484;50.858;4.384;2022-07-24T12:49:44;4.45;;;3.00;;
22634;SDS011;11484;50.858;4.384;2022-07-24T12:52:19;6.75;;;3.28;;
22634;SDS011;11484;50.858;4.384;2022-07-24T12:54:48;4.90;;;2.85;;
22634;SDS011;11484;50.858;4.384;2022-07-24T12:57:15;5.22;;;2.92;;
22634;SDS011;11484;50.858;4.384;2022-07-24T12:59:44;3.45;;;2.83;;
22634;SDS011;11484;50.858;4.384;2022-07-24T13:04:47;3.25;;;2.60;;
22634;SDS011;11484;50.858;4.384;2022-07-24T13:07:15;6.25;;;3.55;;
22634;SDS011;11484;50.858;4.384;2022-07-24T13:09:42;4.20;;;2.72;;
22634;SDS011;11484;50.858;4.384;2022-07-24T13:12:08;3.20;;;2.80;;
22634;SDS011;11484;50.858;4.384;2022-07-24T13:14:35;4.20;;;2.63;;
22634;SDS011;11484;50.858;4.384;2022-07-24T13:17:12;4.38;;;2.53;;
22634;SDS011;11484;50.858;4.384;2022-07-24T13:19:40;4.72;;;2.78;;
22634;SDS011;11484;50.858;4.384;2022-07-24T13:22:07;4.47;;;2.72;;
22634;SDS011;11484;50.858;4.384;2022-07-24T13:24:33;6.43;;;3.20;;
22634;SDS011;11484;50.858;4.384;2022-07-24T13:26:59;3.90;;;3.00;;
22634;SDS011;11484;50.858;4.384;2022-07-24T13:29:26;3.70;;;3.08;;
22634;SDS011;11484;50.858;4.384;2022-07-24T13:31:52;4.70;;;2.92;;
22634;SDS011;11484;50.858;4.384;2022-07-24T13:34:18;2.90;;;2.60;;
22634;SDS011;11484;50.858;4.384;2022-07-24T13:36:44;4.07;;;2.58;;
22634;SDS011;11484;50.858;4.384;2022-07-24T13:39:11;4.65;;;2.50;;
22634;SDS011;11484;50.858;4.384;2022-07-24T13:41:37;4.55;;;2.65;;
22634;SDS011;11484;50.858;4.384;2022-07-24T13:44:04;6.18;;;2.90;;
22634;SDS011;11484;50.858;4.384;2022-07-24T13:46:30;4.13;;;2.63;;
22634;SDS011;11484;50.858;4.384;2022-07-24T13:48:56;4.22;;;2.50;;
22634;SDS011;11484;50.858;4.384;2022-07-24T13:51:24;3.13;;;2.63;;
22634;SDS011;11484;50.858;4.384;2022-07-24T13:53:50;6.13;;;2.90;;
22634;SDS011;11484;50.858;4.384;2022-07-24T13:56:16;5.40;;;2.88;;
22634;SDS011;11484;50.858;4.384;2022-07-24T13:58:41;4.18;;;3.70;;
22634;SDS011;11484;50.858;4.384;2022-07-24T14:01:08;6.65;;;5.78;;
22634;SDS011;11484;50.858;4.384;2022-07-24T14:03:35;5.45;;;2.88;;
22634;SDS011;11484;50.858;4.384;2022-07-24T14:06:02;4.32;;;3.05;;
22634;SDS011;11484;50.858;4.384;2022-07-24T14:08:28;4.63;;;2.83;;
22634;SDS011;11484;50.858;4.384;2022-07-24T14:10:54;5.30;;;3.22;;
22634;SDS011;11484;50.858;4.384;2022-07-24T14:13:20;3.55;;;3.13;;
22634;SDS011;11484;50.858;4.384;2022-07-24T14:15:46;3.75;;;3.25;;
22634;SDS011;11484;50.858;4.384;2022-07-24T14:18:12;5.05;;;3.53;;
22634;SDS011;11484;50.858;4.384;2022-07-24T14:20:38;4.45;;;2.85;;
22634;SDS011;11484;50.858;4.384;2022-07-24T14:23:04;3.95;;;3.17;;
22634;SDS011;11484;50.858;4.384;2022-07-24T14:25:30;3.10;;;2.55;;
22634;SDS011;11484;50.858;4.384;2022-07-24T14:27:56;6.88;;;3.03;;
22634;SDS011;11484;50.858;4.384;2022-07-24T14:30:22;2.95;;;2.65;;
22634;SDS011;11484;50.858;4.384;2022-07-24T14:32:48;2.95;;;2.67;;
22634;SDS011;11484;50.858;4.384;2022-07-24T14:35:13;3.97;;;3.00;;
22634;SDS011;11484;50.858;4.384;2022-07-24T14:37:39;3.88;;;2.88;;
22634;SDS011;11484;50.858;4.384;2022-07-24T14:40:06;10.18;;;3.67;;
22634;SDS011;11484;50.858;4.384;2022-07-24T14:42:33;3.85;;;3.08;;
22634;SDS011;11484;50.858;4.384;2022-07-24T14:44:59;4.25;;;3.17;;
22634;SDS011;11484;50.858;4.384;2022-07-24T14:47:25;3.38;;;3.03;;
22634;SDS011;11484;50.858;4.384;2022-07-24T14:49:51;5.40;;;3.40;;
22634;SDS011;11484;50.858;4.384;2022-07-24T14:52:17;6.00;;;3.70;;
22634;SDS011;11484;50.858;4.384;2022-07-24T14:54:46;7.15;;;3.38;;
22634;SDS011;11484;50.858;4.384;2022-07-24T14:57:12;4.20;;;3.50;;
22634;SDS011;11484;50.858;4.384;2022-07-24T14:59:38;6.88;;;3.50;;
22634;SDS011;11484;50.858;4.384;2022-07-24T15:02:05;4.28;;;3.70;;
22634;SDS011;11484;50.858;4.384;2022-07-24T15:04:32;11.40;;;3.90;;
22634;SDS011;11484;50.858;4.384;2022-07-24T15:06:57;4.32;;;3.30;;
22634;SDS011;11484;50.858;4.384;2022-07-24T15:09:23;4.85;;;3.78;;
22634;SDS011;11484;50.858;4.384;2022-07-24T15:11:49;5.72;;;4.47;;
22634;SDS011;11484;50.858;4.384;2022-07-24T15:14:15;4.85;;;4.18;;
22634;SDS011;11484;50.858;4.384;2022-07-24T15:16:41;4.88;;;3.92;;
22634;SDS011;11484;50.858;4.384;2022-07-24T15:19:06;5.15;;;3.80;;
22634;SDS011;11484;50.858;4.384;2022-07-24T15:21:32;4.80;;;3.80;;
22634;SDS011;11484;50.858;4.384;2022-07-24T15:23:58;4.93;;;4.40;;
22634;SDS011;11484;50.858;4.384;2022-07-24T15:26:23;7.38;;;4.30;;
22634;SDS011;11484;50.858;4.384;2022-07-24T15:28:49;4.55;;;4.13;;
22634;SDS011;11484;50.858;4.384;2022-07-24T15:31:15;7.65;;;3.90;;